Darstellungsparameter: Aktuell verwendete Einstellungen:
Skalierung der Graphiken ... ?
xyx+y,   Skalierungsfaktor:      Skalierung: Modus: x, Faktor: 1
Darstellungszeitraum ... ?
Vom - - bis: - -   Zeitraum: 06.05.2009 - 08.05.2009
Min/Max/Avg-Anzeige ... ?
Zeige MMA aktuell
Zeige MMA Monat
Zeige MMA alles
Zeige --A aktuell
Zeige --A Monat
Zeige --A alles
Keine MMA-Anzeige
MMA:
Average (ber die Originaldaten)
MMA-Basis: 06.05.2009 - 08.05.2009
Quicknavigation für Darstellung... ?
Tage:      1T, 2T, 3T, 5T -1T -2T -3T -5T +1T +2T +3T +5T
Wochen: 1W, 2W, 3W -1W -2W -3W +1W +2W +3W
Monate: 1M, 3M, 6M -1M -3M -6M +1M +3M +6M
Jahre:    1J, 3J, 5J, 10J -1J -3J -5J -10J +1J +3J +5J +10J
Nutze für die Darstellung ... ?
Originaldaten oder Mittelwerte auf ...
Stundenbasis Tagesbasis Wochenbasis
Monatsbasis Jahresbasis      Datenbasis: Original-Daten
Darstellen als:
Statistik (Auto) Statistik J:M      Darstellung:
Zur Graphik,    zurück zur Übersicht aller Sensoren.
 
Tabellarische Datenbersicht: ?
 
Sensor: Nr:Datum:Temp:Abs-Feuchte:Windchill:Wind:
Aussen-T/F 1 06-05-2009 00:08:43 11.8 C 9.58 g/m*3 11.8 C 0 km/h
2 06-05-2009 00:20:43 11.9 C 9.43 g/m*3 11.9 C 0 km/h
3 06-05-2009 00:32:43 12 C 9.27 g/m*3 12 C 0 km/h
4 06-05-2009 00:44:43 12 C 9.06 g/m*3 12 C 0 km/h
5 06-05-2009 00:56:43 12.1 C 9.01 g/m*3 12.1 C 0 km/h
6 06-05-2009 01:08:43 12.2 C 8.96 g/m*3 12.2 C 0 km/h
7 06-05-2009 01:20:43 12.2 C 8.85 g/m*3 12.2 C 0 km/h
8 06-05-2009 01:32:44 12.1 C 8.79 g/m*3 12.1 C 0 km/h
9 06-05-2009 01:44:44 12.1 C 8.79 g/m*3 12.1 C 0 km/h
10 06-05-2009 01:56:44 12.1 C 8.79 g/m*3 12.1 C 0 km/h
11 06-05-2009 02:08:44 12.3 C 8.8 g/m*3 12.3 C 0 km/h
12 06-05-2009 02:20:44 12.4 C 8.74 g/m*3 12.4 C 0 km/h
13 06-05-2009 02:32:44 12.4 C 8.74 g/m*3 12.4 C 0 km/h
14 06-05-2009 02:44:44 12.4 C 8.63 g/m*3 12.4 C 0 km/h
15 06-05-2009 02:56:44 12.4 C 8.63 g/m*3 12.4 C 0 km/h
16 06-05-2009 03:08:44 12.2 C 8.63 g/m*3 12.2 C 0 km/h
17 06-05-2009 03:20:44 12.2 C 8.52 g/m*3 12.2 C 0 km/h
18 06-05-2009 03:32:44 12.4 C 8.3 g/m*3 12.4 C 0 km/h
19 06-05-2009 03:44:44 12.4 C 8.3 g/m*3 12.4 C 0 km/h
20 06-05-2009 03:56:44 12.4 C 8.3 g/m*3 12.4 C 0 km/h
21 06-05-2009 04:08:44 12.4 C 8.09 g/m*3 12.4 C 0 km/h
22 06-05-2009 04:20:44 12.4 C 7.98 g/m*3 12.4 C 0 km/h
23 06-05-2009 04:32:44 12.2 C 7.99 g/m*3 12.2 C 0 km/h
24 06-05-2009 04:44:44 12 C 7.99 g/m*3 12 C 0 km/h
25 06-05-2009 04:56:44 12 C 7.99 g/m*3 12 C 0 km/h
Sensor: Nr:Datum:Temp:Abs-Feuchte:Windchill:Wind:
Aussen-T/F 26 06-05-2009 05:08:44 12 C 7.78 g/m*3 12 C 0 km/h
27 06-05-2009 05:20:44 12 C 7.57 g/m*3 12 C 0 km/h
28 06-05-2009 05:32:45 11.9 C 7.41 g/m*3 11.9 C 0 km/h
29 06-05-2009 05:44:45 11.8 C 7.26 g/m*3 11.8 C 0 km/h
30 06-05-2009 05:56:45 11.8 C 7.05 g/m*3 11.8 C 0 km/h
31 06-05-2009 06:08:45 11.8 C 6.95 g/m*3 11.8 C 0 km/h
32 06-05-2009 06:20:45 11.8 C 7.05 g/m*3 11.8 C 0 km/h
33 06-05-2009 06:32:45 11.8 C 7.05 g/m*3 11.8 C 0 km/h
34 06-05-2009 06:44:45 11.8 C 7.16 g/m*3 11.8 C 0 km/h
35 06-05-2009 06:56:45 11.8 C 7.16 g/m*3 11.8 C 0 km/h
36 06-05-2009 07:08:45 11.8 C 6.95 g/m*3 11.8 C 0 km/h
37 06-05-2009 07:20:45 11.9 C 6.99 g/m*3 11.9 C 0 km/h
38 06-05-2009 07:32:45 12 C 6.71 g/m*3 12 C 0 km/h
39 06-05-2009 07:44:45 12.2 C 6.91 g/m*3 12.2 C 0 km/h
40 06-05-2009 07:56:45 12.3 C 6.84 g/m*3 12.3 C 0 km/h
41 06-05-2009 08:08:43 12.3 C 6.73 g/m*3 12.3 C 0 km/h
42 06-05-2009 08:20:43 12.3 C 6.73 g/m*3 12.3 C 0 km/h
43 06-05-2009 08:32:43 12.2 C 6.69 g/m*3 12.2 C 0 km/h
44 06-05-2009 08:44:43 12.2 C 6.69 g/m*3 12.2 C 0 km/h
45 06-05-2009 08:56:43 12.4 C 6.88 g/m*3 12.4 C 0 km/h
46 06-05-2009 09:08:42 12.3 C 6.41 g/m*3 12.3 C 0 km/h
47 06-05-2009 09:20:43 12.5 C 6.38 g/m*3 12.5 C 0 km/h
48 06-05-2009 09:32:42 13.1 C 6.73 g/m*3 13.1 C 0 km/h
49 06-05-2009 09:44:42 13.2 C 6.54 g/m*3 13.2 C 0 km/h
50 06-05-2009 09:56:43 13.7 C 6.16 g/m*3 13.7 C 0 km/h
Sensor: Nr:Datum:Temp:Abs-Feuchte:Windchill:Wind:
Aussen-T/F 51 06-05-2009 10:08:42 14.1 C 6.31 g/m*3 14.1 C 0 km/h
52 06-05-2009 10:20:42 14 C 6.03 g/m*3 14 C 0 km/h
53 06-05-2009 10:32:42 14.4 C 6.18 g/m*3 14.4 C 0 km/h
54 06-05-2009 10:44:41 14.1 C 5.95 g/m*3 14.1 C 0 km/h
55 06-05-2009 10:56:41 14.4 C 5.93 g/m*3 14.4 C 0 km/h
56 06-05-2009 11:08:42 14.7 C 5.92 g/m*3 14.7 C 0 km/h
57 06-05-2009 11:20:41 14.7 C 5.79 g/m*3 14.7 C 0 km/h
58 06-05-2009 11:32:41 15.2 C 5.84 g/m*3 15.2 C 0 km/h
59 06-05-2009 11:44:41 15.4 C 5.78 g/m*3 15.4 C 0 km/h
60 06-05-2009 11:56:41 15.5 C 5.82 g/m*3 15.5 C 0 km/h
61 06-05-2009 12:08:41 15.8 C 5.79 g/m*3 15.8 C 0 km/h
62 06-05-2009 12:20:40 16.2 C 5.79 g/m*3 16.2 C 0 km/h
63 06-05-2009 12:32:41 16.2 C 5.65 g/m*3 16.2 C 0 km/h
64 06-05-2009 12:44:40 16.2 C 5.93 g/m*3 16.2 C 0 km/h
65 06-05-2009 12:56:40 15.4 C 5.91 g/m*3 15.4 C 0 km/h
66 06-05-2009 13:08:40 15.4 C 5.91 g/m*3 15.4 C 0 km/h
67 06-05-2009 13:20:41 15.3 C 6.14 g/m*3 15.3 C 0 km/h
68 06-05-2009 13:32:40 15.4 C 6.18 g/m*3 15.4 C 0 km/h
69 06-05-2009 13:44:40 15.6 C 6.25 g/m*3 15.6 C 0 km/h
70 06-05-2009 13:56:40 15.9 C 6.23 g/m*3 15.9 C 0 km/h
71 06-05-2009 14:08:40 16 C 6.4 g/m*3 16 C 0 km/h
72 06-05-2009 14:20:40 16 C 6.13 g/m*3 16 C 0 km/h
73 06-05-2009 14:32:39 15.8 C 6.33 g/m*3 15.8 C 0 km/h
74 06-05-2009 14:44:40 15.6 C 6.38 g/m*3 15.6 C 0 km/h
75 06-05-2009 14:56:40 15.5 C 6.48 g/m*3 15.5 C 0 km/h
Sensor: Nr:Datum:Temp:Abs-Feuchte:Windchill:Wind:
Aussen-T/F 76 06-05-2009 15:08:39 15.4 C 6.57 g/m*3 15.4 C 0 km/h
77 06-05-2009 15:20:39 15.5 C 6.61 g/m*3 15.5 C 0 km/h
78 06-05-2009 15:32:39 15.4 C 6.57 g/m*3 15.4 C 0 km/h
79 06-05-2009 15:44:39 15.6 C 6.78 g/m*3 15.6 C 0 km/h
80 06-05-2009 15:56:39 15.7 C 6.69 g/m*3 15.7 C 0 km/h
81 06-05-2009 16:02:38 15.7 C 6.82 g/m*3 15.7 C 0 km/h
82 06-05-2009 16:17:39 15.6 C 6.78 g/m*3 15.6 C 0 km/h
83 06-05-2009 16:32:38 15.6 C 6.78 g/m*3 15.6 C 0 km/h
84 06-05-2009 16:47:38 15.7 C 6.96 g/m*3 15.7 C 0 km/h
85 06-05-2009 17:02:38 15.9 C 7.04 g/m*3 15.9 C 0 km/h
86 06-05-2009 17:17:38 15.8 C 7 g/m*3 15.8 C 0 km/h
87 06-05-2009 17:32:38 15.7 C 7.09 g/m*3 15.7 C 0 km/h
88 06-05-2009 17:47:38 15.8 C 7.13 g/m*3 15.8 C 0 km/h
89 06-05-2009 18:02:38 16 C 6.81 g/m*3 16 C 0 km/h
90 06-05-2009 18:17:37 16 C 6.81 g/m*3 16 C 0 km/h
91 06-05-2009 18:32:37 15.8 C 7 g/m*3 15.8 C 0 km/h
92 06-05-2009 18:47:37 15.7 C 7.09 g/m*3 15.7 C 0 km/h
93 06-05-2009 19:02:37 15.7 C 7.09 g/m*3 15.7 C 0 km/h
94 06-05-2009 19:17:36 15.6 C 7.31 g/m*3 15.6 C 0 km/h
95 06-05-2009 19:32:36 15.5 C 7.27 g/m*3 15.5 C 0 km/h
96 06-05-2009 19:47:36 15.3 C 7.18 g/m*3 15.3 C 0 km/h
97 06-05-2009 20:02:36 15.2 C 7.14 g/m*3 15.2 C 0 km/h
98 06-05-2009 20:17:36 15.1 C 7.22 g/m*3 15.1 C 0 km/h
99 06-05-2009 20:32:36 15 C 7.31 g/m*3 15 C 0 km/h
100 06-05-2009 20:47:36 14.8 C 7.35 g/m*3 14.8 C 0 km/h
Sensor: Nr:Datum:Temp:Abs-Feuchte:Windchill:Wind:
Aussen-T/F 101 06-05-2009 21:02:36 14.7 C 7.3 g/m*3 14.7 C 0 km/h
102 06-05-2009 21:17:01 14.6 C 7.26 g/m*3 14.6 C 0 km/h
103 06-05-2009 21:33:36 14.5 C 7.21 g/m*3 14.5 C 0 km/h
104 06-05-2009 21:48:36 14.4 C 7.17 g/m*3 14.4 C 0 km/h
105 06-05-2009 22:03:36 14.2 C 7.2 g/m*3 14.2 C 0 km/h
106 06-05-2009 22:18:36 14.3 C 7.25 g/m*3 14.3 C 0 km/h
107 06-05-2009 22:33:36 14.1 C 7.16 g/m*3 14.1 C 0 km/h
108 06-05-2009 22:48:36 14.1 C 7.16 g/m*3 14.1 C 0 km/h
109 06-05-2009 23:03:36 14 C 7.12 g/m*3 14 C 0 km/h
110 06-05-2009 23:18:36 13.9 C 7.19 g/m*3 13.9 C 0 km/h
111 06-05-2009 23:33:36 13.7 C 7.1 g/m*3 13.7 C 0 km/h
112 06-05-2009 23:48:37 13.6 C 7.06 g/m*3 13.6 C 0 km/h
113 07-05-2009 00:03:37 13.5 C 7.13 g/m*3 13.5 C 0 km/h
114 07-05-2009 00:18:37 13.4 C 7.09 g/m*3 13.4 C 0 km/h
115 07-05-2009 00:33:37 13.1 C 7.19 g/m*3 13.1 C 0 km/h
116 07-05-2009 00:48:37 12.8 C 7.28 g/m*3 12.8 C 0 km/h
117 07-05-2009 01:03:37 12.4 C 7.21 g/m*3 12.4 C 0 km/h
118 07-05-2009 01:18:37 12.1 C 7.29 g/m*3 12.1 C 0 km/h
119 07-05-2009 01:33:37 11.8 C 7.37 g/m*3 11.8 C 0 km/h
120 07-05-2009 01:48:37 11.6 C 7.38 g/m*3 11.6 C 0 km/h
121 07-05-2009 02:03:37 11.3 C 7.34 g/m*3 11.3 C 0 km/h
122 07-05-2009 02:18:37 11 C 7.31 g/m*3 11 C 0 km/h
123 07-05-2009 02:33:37 11 C 7.41 g/m*3 11 C 0 km/h
124 07-05-2009 02:48:37 10.9 C 7.46 g/m*3 10.9 C 0 km/h
125 07-05-2009 03:03:37 10.8 C 7.41 g/m*3 10.8 C 0 km/h
Sensor: Nr:Datum:Temp:Abs-Feuchte:Windchill:Wind:
Aussen-T/F 126 07-05-2009 03:18:37 10.7 C 7.37 g/m*3 10.7 C 0 km/h
127 07-05-2009 03:33:37 10.5 C 7.37 g/m*3 10.5 C 0 km/h
128 07-05-2009 03:48:37 10.3 C 7.28 g/m*3 10.3 C 0 km/h
129 07-05-2009 04:03:37 10.2 C 7.23 g/m*3 10.2 C 0 km/h
130 07-05-2009 04:18:37 10.2 C 7.33 g/m*3 10.2 C 0 km/h
131 07-05-2009 04:33:38 9.7 C 7.19 g/m*3 9.7 C 0 km/h
132 07-05-2009 04:48:38 9.3 C 7.1 g/m*3 9.3 C 0 km/h
133 07-05-2009 05:03:38 8.9 C 7.01 g/m*3 8.9 C 0 km/h
134 07-05-2009 05:18:38 8.7 C 7.01 g/m*3 8.7 C 0 km/h
135 07-05-2009 05:33:38 8.5 C 7 g/m*3 8.5 C 0 km/h
136 07-05-2009 05:48:38 8.4 C 7.04 g/m*3 8.4 C 0 km/h
137 07-05-2009 06:03:38 8.3 C 7.08 g/m*3 8.3 C 0 km/h
138 07-05-2009 06:18:38 8.2 C 7.03 g/m*3 8.2 C 0 km/h
139 07-05-2009 06:33:38 8.2 C 7.03 g/m*3 8.2 C 0 km/h
140 07-05-2009 06:48:38 8.3 C 7.16 g/m*3 8.3 C 0 km/h
141 07-05-2009 07:03:36 8.5 C 7.26 g/m*3 8.5 C 0 km/h
142 07-05-2009 07:18:36 8.6 C 7.39 g/m*3 8.6 C 0 km/h
143 07-05-2009 07:33:35 9.2 C 7.59 g/m*3 9.2 C 0 km/h
144 07-05-2009 07:48:36 9.9 C 7.84 g/m*3 9.9 C 0 km/h
145 07-05-2009 08:03:35 10.1 C 7.47 g/m*3 10.1 C 0 km/h
146 07-05-2009 08:18:35 10.2 C 7.52 g/m*3 10.2 C 0 km/h
147 07-05-2009 08:33:35 10.7 C 7.66 g/m*3 10.7 C 0 km/h
148 07-05-2009 08:56:02 11.4 C 7.6 g/m*3 11.4 C 0 km/h
149 07-05-2009 09:11:02 11.9 C 7.63 g/m*3 11.9 C 0 km/h
150 07-05-2009 09:26:02 12.5 C 7.48 g/m*3 12.5 C 0 km/h
Sensor: Nr:Datum:Temp:Abs-Feuchte:Windchill:Wind:
Aussen-T/F 151 07-05-2009 09:41:02 13 C 7.37 g/m*3 13 C 0 km/h
152 07-05-2009 09:56:02 13.5 C 7.49 g/m*3 13.5 C 0 km/h
153 07-05-2009 10:11:02 13.8 C 7.51 g/m*3 13.8 C 0 km/h
154 07-05-2009 10:26:02 14.6 C 7.38 g/m*3 14.6 C 0 km/h
155 07-05-2009 10:41:02 15 C 7.05 g/m*3 15 C 0 km/h
156 07-05-2009 10:56:02 15.4 C 7.36 g/m*3 15.4 C 0 km/h
157 07-05-2009 11:11:03 16.1 C 6.99 g/m*3 16.1 C 0 km/h
158 07-05-2009 11:26:03 16.4 C 6.98 g/m*3 16.4 C 0 km/h
159 07-05-2009 11:41:03 16.7 C 7.11 g/m*3 16.7 C 0 km/h
160 07-05-2009 11:56:03 17 C 6.66 g/m*3 17 C 0 km/h
161 07-05-2009 12:11:03 17.6 C 6.45 g/m*3 17.6 C 0 km/h
162 07-05-2009 12:26:03 17.7 C 6.49 g/m*3 17.7 C 0 km/h
163 07-05-2009 12:41:03 17.2 C 6.3 g/m*3 17.2 C 0 km/h
164 07-05-2009 12:56:03 18.5 C 6.65 g/m*3 18.5 C 0 km/h
165 07-05-2009 13:11:03 19.3 C 6.47 g/m*3 19.3 C 0 km/h
166 07-05-2009 13:26:03 19.7 C 6.28 g/m*3 19.7 C 0 km/h
167 07-05-2009 13:41:03 20.5 C 5.69 g/m*3 20.5 C 0 km/h
168 07-05-2009 13:56:03 20.5 C 5.69 g/m*3 20.5 C 0 km/h
169 07-05-2009 14:11:03 20.5 C 5.52 g/m*3 20.5 C 0 km/h
170 07-05-2009 14:26:03 20.3 C 5.45 g/m*3 20.3 C 0 km/h
171 07-05-2009 14:41:03 20.9 C 5.83 g/m*3 20.9 C 0 km/h
172 07-05-2009 14:56:03 21.5 C 5.85 g/m*3 21.5 C 0 km/h
173 07-05-2009 15:11:03 21.9 C 5.79 g/m*3 21.9 C 0 km/h
174 07-05-2009 15:26:03 22.7 C 5.66 g/m*3 22.7 C 0 km/h
175 07-05-2009 15:41:03 23.1 C 5.17 g/m*3 23.1 C 0 km/h
Sensor: Nr:Datum:Temp:Abs-Feuchte:Windchill:Wind:
Aussen-T/F 176 07-05-2009 15:56:04 24.1 C 5.47 g/m*3 24.1 C 0 km/h
177 07-05-2009 16:11:04 23.6 C 5.1 g/m*3 23.6 C 0 km/h
178 07-05-2009 16:26:04 24.5 C 5.6 g/m*3 24.5 C 0 km/h
179 07-05-2009 16:41:04 24.5 C 5.6 g/m*3 24.5 C 0 km/h
180 07-05-2009 16:56:04 24.1 C 5.47 g/m*3 24.1 C 0 km/h
181 07-05-2009 17:11:04 25.1 C 5.56 g/m*3 25.1 C 0 km/h
182 07-05-2009 17:26:04 25.4 C 5.41 g/m*3 25.4 C 0 km/h
183 07-05-2009 17:41:04 24.9 C 5.72 g/m*3 24.9 C 0 km/h
184 07-05-2009 17:56:04 26.4 C 5.73 g/m*3 26.4 C 0 km/h
185 07-05-2009 18:11:04 26 C 5.11 g/m*3 26 C 0 km/h
186 07-05-2009 18:26:04 25.5 C 4.97 g/m*3 25.5 C 0 km/h
187 07-05-2009 18:41:04 25.1 C 5.09 g/m*3 25.1 C 0 km/h
188 07-05-2009 18:56:04 25 C 5.29 g/m*3 25 C 0 km/h
189 07-05-2009 19:11:04 25.7 C 5.99 g/m*3 25.7 C 0 km/h
190 07-05-2009 19:26:04 26.4 C 5.73 g/m*3 26.4 C 0 km/h
191 07-05-2009 19:41:04 25.9 C 5.57 g/m*3 25.9 C 0 km/h
192 07-05-2009 19:56:04 25.5 C 5.92 g/m*3 25.5 C 0 km/h
193 07-05-2009 20:11:04 25.1 C 6.48 g/m*3 25.1 C 0 km/h
194 07-05-2009 20:26:04 24.1 C 6.56 g/m*3 24.1 C 0 km/h
195 07-05-2009 20:41:04 22.4 C 6.55 g/m*3 22.4 C 0 km/h
196 07-05-2009 20:56:04 20.8 C 6.88 g/m*3 20.8 C 0 km/h
197 07-05-2009 21:11:05 19.9 C 7.39 g/m*3 19.9 C 0 km/h
198 07-05-2009 21:26:05 19.3 C 7.3 g/m*3 19.3 C 0 km/h
199 07-05-2009 21:41:05 18.9 C 7.29 g/m*3 18.9 C 0 km/h
200 07-05-2009 21:56:05 18.6 C 7.32 g/m*3 18.6 C 0 km/h
Sensor: Nr:Datum:Temp:Abs-Feuchte:Windchill:Wind:
Aussen-T/F 201 07-05-2009 22:11:05 18.1 C 7.26 g/m*3 18.1 C 0 km/h
202 07-05-2009 22:26:05 17.7 C 7.39 g/m*3 17.7 C 0 km/h
203 07-05-2009 22:41:05 17.2 C 7.47 g/m*3 17.2 C 0 km/h
204 07-05-2009 22:56:05 16.8 C 7.43 g/m*3 16.8 C 0 km/h
205 07-05-2009 23:11:05 16.6 C 7.49 g/m*3 16.6 C 0 km/h
206 07-05-2009 23:26:05 16.4 C 7.68 g/m*3 16.4 C 0 km/h
207 07-05-2009 23:41:05 16 C 7.49 g/m*3 16 C 0 km/h
208 07-05-2009 23:56:05 15.7 C 7.63 g/m*3 15.7 C 0 km/h
209 08-05-2009 00:11:05 15.4 C 7.75 g/m*3 15.4 C 0 km/h
210 08-05-2009 00:26:05 14.8 C 7.85 g/m*3 14.8 C 0 km/h
211 08-05-2009 00:41:05 14.6 C 7.88 g/m*3 14.6 C 0 km/h
212 08-05-2009 00:56:05 14.4 C 7.79 g/m*3 14.4 C 0 km/h
213 08-05-2009 01:11:05 14.2 C 7.94 g/m*3 14.2 C 0 km/h
214 08-05-2009 01:26:05 13.9 C 8.15 g/m*3 13.9 C 0 km/h
215 08-05-2009 01:41:05 14 C 7.96 g/m*3 14 C 0 km/h
216 08-05-2009 01:56:05 13.6 C 8 g/m*3 13.6 C 0 km/h
217 08-05-2009 02:11:06 13.2 C 7.92 g/m*3 13.2 C 0 km/h
218 08-05-2009 02:26:06 13.1 C 7.99 g/m*3 13.1 C 0 km/h
219 08-05-2009 02:41:06 12.8 C 8.06 g/m*3 12.8 C 0 km/h
220 08-05-2009 02:56:06 12.7 C 8.01 g/m*3 12.7 C 0 km/h
221 08-05-2009 03:11:06 12.5 C 8.03 g/m*3 12.5 C 0 km/h
222 08-05-2009 03:26:06 12.4 C 8.09 g/m*3 12.4 C 0 km/h
223 08-05-2009 03:41:06 12.2 C 8.09 g/m*3 12.2 C 0 km/h
224 08-05-2009 03:56:06 12.4 C 8.09 g/m*3 12.4 C 0 km/h
225 08-05-2009 04:11:06 12.1 C 8.04 g/m*3 12.1 C 0 km/h
Sensor: Nr:Datum:Temp:Abs-Feuchte:Windchill:Wind:
Aussen-T/F 226 08-05-2009 04:26:06 12.1 C 8.04 g/m*3 12.1 C 0 km/h
227 08-05-2009 04:41:06 12.4 C 8.19 g/m*3 12.4 C 0 km/h
228 08-05-2009 04:56:06 12.2 C 8.2 g/m*3 12.2 C 0 km/h
229 08-05-2009 05:11:06 11.5 C 8.57 g/m*3 11.5 C 0 km/h
230 08-05-2009 05:26:06 11.7 C 9.2 g/m*3 11.7 C 0 km/h
231 08-05-2009 05:41:06 12 C 9.48 g/m*3 12 C 0 km/h
232 08-05-2009 05:56:06 12.6 C 10.07 g/m*3 12.6 C 0 km/h
233 08-05-2009 06:11:06 13.3 C 10.4 g/m*3 13.3 C 0 km/h
234 08-05-2009 06:26:06 13.5 C 10.18 g/m*3 13.5 C 0 km/h
235 08-05-2009 06:41:06 13.3 C 9.94 g/m*3 13.3 C 0 km/h
236 08-05-2009 06:56:06 13.2 C 9.99 g/m*3 13.2 C 0 km/h
237 08-05-2009 07:11:06 13 C 9.98 g/m*3 13 C 0 km/h
238 08-05-2009 07:26:07 13.1 C 10.16 g/m*3 13.1 C 0 km/h
239 08-05-2009 07:41:07 12.6 C 10.07 g/m*3 12.6 C 0 km/h
240 08-05-2009 07:56:07 13.4 C 10.58 g/m*3 13.4 C 0 km/h
241 08-05-2009 08:11:07 13.9 C 10.91 g/m*3 13.9 C 0 km/h
242 08-05-2009 08:26:07 14.4 C 11.13 g/m*3 14.4 C 0 km/h
243 08-05-2009 08:41:07 15 C 11.28 g/m*3 15 C 0 km/h
244 08-05-2009 08:56:07 15.5 C 11.24 g/m*3 15.5 C 0 km/h
245 08-05-2009 09:11:07 16.2 C 11.17 g/m*3 16.2 C 0 km/h
246 08-05-2009 09:26:07 16.6 C 11.3 g/m*3 16.6 C 0 km/h
247 08-05-2009 09:41:07 15.2 C 10.12 g/m*3 15.2 C 0 km/h
248 08-05-2009 09:56:07 15.1 C 10.45 g/m*3 15.1 C 0 km/h
249 08-05-2009 10:11:07 16 C 10.63 g/m*3 16 C 0 km/h
250 08-05-2009 10:26:07 16.3 C 10.41 g/m*3 16.3 C 0 km/h
Sensor: Nr:Datum:Temp:Abs-Feuchte:Windchill:Wind:
Aussen-T/F 251 08-05-2009 10:41:07 17 C 10.56 g/m*3 17 C 0 km/h
252 08-05-2009 10:56:07 18.1 C 10.35 g/m*3 18.1 C 0 km/h
253 08-05-2009 11:11:07 18.4 C 10.38 g/m*3 18.4 C 0 km/h
254 08-05-2009 11:26:07 18.9 C 10.04 g/m*3 18.9 C 0 km/h
255 08-05-2009 11:41:07 19.4 C 9.51 g/m*3 19.4 C 0 km/h
256 08-05-2009 11:56:07 19.5 C 9.4 g/m*3 19.5 C 0 km/h
257 08-05-2009 12:11:07 19.9 C 9.45 g/m*3 19.9 C 0 km/h
258 08-05-2009 12:26:08 20.5 C 9.25 g/m*3 20.5 C 0 km/h
259 08-05-2009 12:41:08 20 C 9.16 g/m*3 20 C 0 km/h
260 08-05-2009 12:56:08 20.1 C 9.04 g/m*3 20.1 C 0 km/h
261 08-05-2009 13:11:08 20 C 8.99 g/m*3 20 C 0 km/h
262 08-05-2009 13:26:08 20.2 C 8.92 g/m*3 20.2 C 0 km/h
263 08-05-2009 13:41:08 19.9 C 9.11 g/m*3 19.9 C 0 km/h
264 08-05-2009 13:56:08 21 C 8.98 g/m*3 21 C 0 km/h
265 08-05-2009 14:11:08 21 C 8.79 g/m*3 21 C 0 km/h
266 08-05-2009 14:26:08 21.2 C 8.52 g/m*3 21.2 C 0 km/h
267 08-05-2009 14:41:08 22.3 C 8.49 g/m*3 22.3 C 0 km/h
268 08-05-2009 14:56:08 22 C 8.15 g/m*3 22 C 0 km/h
269 08-05-2009 15:11:08 21.9 C 8.1 g/m*3 21.9 C 0 km/h
270 08-05-2009 15:26:08 22 C 7.96 g/m*3 22 C 0 km/h
271 08-05-2009 15:41:08 21.9 C 7.72 g/m*3 21.9 C 0 km/h
272 08-05-2009 15:56:08 21.1 C 7 g/m*3 21.1 C 0 km/h
273 08-05-2009 16:11:08 21.8 C 7.1 g/m*3 21.8 C 0 km/h
274 08-05-2009 16:26:08 21.3 C 6.71 g/m*3 21.3 C 0 km/h
275 08-05-2009 16:41:08 22.4 C 6.36 g/m*3 22.4 C 0 km/h
Sensor: Nr:Datum:Temp:Abs-Feuchte:Windchill:Wind:
Aussen-T/F 276 08-05-2009 16:56:08 22.2 C 6.48 g/m*3 22.2 C 0 km/h
277 08-05-2009 17:11:08 21.5 C 6.03 g/m*3 21.5 C 0 km/h
278 08-05-2009 17:26:08 20.9 C 6.37 g/m*3 20.9 C 0 km/h
279 08-05-2009 17:41:09 20.8 C 6.52 g/m*3 20.8 C 0 km/h
280 08-05-2009 17:56:09 21.1 C 6.45 g/m*3 21.1 C 0 km/h
281 08-05-2009 18:11:09 21.7 C 6.29 g/m*3 21.7 C 0 km/h
282 08-05-2009 18:26:09 21.4 C 6.37 g/m*3 21.4 C 0 km/h
283 08-05-2009 18:41:09 20.7 C 6.3 g/m*3 20.7 C 0 km/h
284 08-05-2009 18:56:09 19.6 C 6.42 g/m*3 19.6 C 0 km/h
285 08-05-2009 19:11:09 20.2 C 6.47 g/m*3 20.2 C 0 km/h
286 08-05-2009 19:26:09 20 C 6.39 g/m*3 20 C 0 km/h
287 08-05-2009 19:41:09 19.1 C 6.23 g/m*3 19.1 C 0 km/h
288 08-05-2009 19:56:09 18.3 C 5.79 g/m*3 18.3 C 0 km/h
289 08-05-2009 20:11:09 17.8 C 5.01 g/m*3 17.8 C 0 km/h
290 08-05-2009 20:26:09 17.7 C 5.28 g/m*3 17.7 C 0 km/h
291 08-05-2009 20:41:09 17.3 C 5.6 g/m*3 17.3 C 0 km/h
292 08-05-2009 20:56:09 16.9 C 5.75 g/m*3 16.9 C 0 km/h
293 08-05-2009 21:11:09 16.3 C 5.83 g/m*3 16.3 C 0 km/h
294 08-05-2009 21:26:09 15.8 C 6.19 g/m*3 15.8 C 0 km/h
295 08-05-2009 21:41:09 15.4 C 6.44 g/m*3 15.4 C 0 km/h
296 08-05-2009 21:56:09 14.7 C 6.55 g/m*3 14.7 C 0 km/h
297 08-05-2009 22:11:09 14.3 C 6.76 g/m*3 14.3 C 0 km/h
298 08-05-2009 22:26:10 14.1 C 6.67 g/m*3 14.1 C 0 km/h
299 08-05-2009 22:41:10 14.2 C 6.47 g/m*3 14.2 C 0 km/h
300 08-05-2009 22:56:10 13.9 C 6.23 g/m*3 13.9 C 0 km/h
Sensor: Nr:Datum:Temp:Abs-Feuchte:Windchill:Wind:
Aussen-T/F 301 08-05-2009 23:11:10 13.5 C 6.55 g/m*3 13.5 C 0 km/h
302 08-05-2009 23:26:10 13 C 6.24 g/m*3 13 C 0 km/h
303 08-05-2009 23:41:10 12.7 C 6.23 g/m*3 12.7 C 0 km/h
304 08-05-2009 23:56:10 12.4 C 6.12 g/m*3 12.4 C 0 km/h

Legende:
   Min
   Max


Maximal/Minimal-Werte vom 06.05.2009 - 08.05.2009

Sensor Min Max Avg
Temp
(Aussen-T/F)
8.2 °C
07-05-2009  06:18:38
26.4 °C
07-05-2009  17:56:04
15.54 °C
Abs-Feuchte
(Aussen-T/F)
4.97 g/m*3
07-05-2009  18:26:04
11.3 g/m*3
08-05-2009  09:26:07
7.32 g/m*3
Windchill
(Aussen-T/F)
8.2 C
07-05-2009  06:18:38
26.4 C
07-05-2009  17:56:04
15.49 C

Die Daten stammen von einer Davis Vantage Pro 2 Wetter-Station und werden unter Linux mit der Software wview2wettercgi und aufbereitet. Alle Angaben erfolgen ohne Gewähr für ihre Vollständigkeit oder Richtigkeit.
Kontakt: Rainer Krienke krienke@uni-koblenz.de . Meine Webseiten an der Uni Koblenz oder privat.
Version: $Revision: 0.78 $